sensor_id;sensor_type;location;lat;lon;timestamp;P1;durP1;ratioP1;P2;durP2;ratioP2
37459;SDS011;23318;50.966;5.284;2023-04-24T00:00:16;15.73;;;7.47;;
37459;SDS011;23318;50.966;5.284;2023-04-24T00:02:42;12.43;;;6.93;;
37459;SDS011;23318;50.966;5.284;2023-04-24T00:05:13;13.00;;;8.27;;
37459;SDS011;23318;50.966;5.284;2023-04-24T00:07:43;16.35;;;9.30;;
37459;SDS011;23318;50.966;5.284;2023-04-24T00:10:10;12.48;;;8.52;;
37459;SDS011;23318;50.966;5.284;2023-04-24T00:12:36;14.35;;;8.73;;
37459;SDS011;23318;50.966;5.284;2023-04-24T00:15:02;15.52;;;9.50;;
37459;SDS011;23318;50.966;5.284;2023-04-24T00:17:29;20.10;;;10.43;;
37459;SDS011;23318;50.966;5.284;2023-04-24T00:19:55;17.75;;;9.63;;
37459;SDS011;23318;50.966;5.284;2023-04-24T00:22:26;15.73;;;9.40;;
37459;SDS011;23318;50.966;5.284;2023-04-24T00:24:53;16.42;;;9.40;;
37459;SDS011;23318;50.966;5.284;2023-04-24T00:27:19;20.38;;;10.80;;
37459;SDS011;23318;50.966;5.284;2023-04-24T00:29:45;22.00;;;9.45;;
37459;SDS011;23318;50.966;5.284;2023-04-24T00:32:11;14.07;;;9.82;;
37459;SDS011;23318;50.966;5.284;2023-04-24T00:34:37;19.83;;;10.48;;
37459;SDS011;23318;50.966;5.284;2023-04-24T00:37:02;19.58;;;11.25;;
37459;SDS011;23318;50.966;5.284;2023-04-24T00:39:28;20.73;;;10.70;;
37459;SDS011;23318;50.966;5.284;2023-04-24T00:41:54;18.58;;;10.95;;
37459;SDS011;23318;50.966;5.284;2023-04-24T00:44:21;16.00;;;10.35;;
37459;SDS011;23318;50.966;5.284;2023-04-24T00:46:47;18.25;;;11.77;;
37459;SDS011;23318;50.966;5.284;2023-04-24T00:49:18;19.55;;;11.27;;
37459;SDS011;23318;50.966;5.284;2023-04-24T00:51:44;19.70;;;11.07;;
37459;SDS011;23318;50.966;5.284;2023-04-24T00:54:10;25.92;;;13.18;;
37459;SDS011;23318;50.966;5.284;2023-04-24T00:56:37;21.67;;;10.70;;
37459;SDS011;23318;50.966;5.284;2023-04-24T00:59:03;20.67;;;11.07;;
37459;SDS011;23318;50.966;5.284;2023-04-24T01:01:29;22.45;;;12.63;;
37459;SDS011;23318;50.966;5.284;2023-04-24T01:03:55;21.15;;;11.02;;
37459;SDS011;23318;50.966;5.284;2023-04-24T01:06:22;24.85;;;12.57;;
37459;SDS011;23318;50.966;5.284;2023-04-24T01:08:52;30.63;;;13.35;;
37459;SDS011;23318;50.966;5.284;2023-04-24T01:11:18;23.33;;;12.65;;
37459;SDS011;23318;50.966;5.284;2023-04-24T01:13:45;27.38;;;12.75;;
37459;SDS011;23318;50.966;5.284;2023-04-24T01:16:12;19.55;;;11.52;;
37459;SDS011;23318;50.966;5.284;2023-04-24T01:18:38;23.60;;;12.93;;
37459;SDS011;23318;50.966;5.284;2023-04-24T01:21:04;21.05;;;13.38;;
37459;SDS011;23318;50.966;5.284;2023-04-24T01:23:30;25.35;;;13.15;;
37459;SDS011;23318;50.966;5.284;2023-04-24T01:25:56;24.45;;;12.73;;
37459;SDS011;23318;50.966;5.284;2023-04-24T01:28:22;24.90;;;12.63;;
37459;SDS011;23318;50.966;5.284;2023-04-24T01:30:48;24.25;;;13.02;;
37459;SDS011;23318;50.966;5.284;2023-04-24T01:33:13;24.75;;;11.48;;
37459;SDS011;23318;50.966;5.284;2023-04-24T01:35:39;19.55;;;10.25;;
37459;SDS011;23318;50.966;5.284;2023-04-24T01:38:05;28.80;;;13.13;;
37459;SDS011;23318;50.966;5.284;2023-04-24T01:40:31;20.83;;;11.27;;
37459;SDS011;23318;50.966;5.284;2023-04-24T01:42:57;30.13;;;12.50;;
37459;SDS011;23318;50.966;5.284;2023-04-24T01:45:23;24.83;;;12.38;;
37459;SDS011;23318;50.966;5.284;2023-04-24T01:47:49;23.50;;;11.98;;
37459;SDS011;23318;50.966;5.284;2023-04-24T01:50:15;25.88;;;12.38;;
37459;SDS011;23318;50.966;5.284;2023-04-24T01:52:41;20.23;;;10.52;;
37459;SDS011;23318;50.966;5.284;2023-04-24T01:55:07;20.73;;;12.57;;
37459;SDS011;23318;50.966;5.284;2023-04-24T01:57:33;21.55;;;13.25;;
37459;SDS011;23318;50.966;5.284;2023-04-24T01:59:59;22.95;;;11.80;;
37459;SDS011;23318;50.966;5.284;2023-04-24T02:02:25;30.13;;;13.57;;
37459;SDS011;23318;50.966;5.284;2023-04-24T02:04:54;21.27;;;11.85;;
37459;SDS011;23318;50.966;5.284;2023-04-24T02:07:20;20.13;;;10.95;;
37459;SDS011;23318;50.966;5.284;2023-04-24T02:09:46;24.23;;;14.20;;
37459;SDS011;23318;50.966;5.284;2023-04-24T02:12:12;21.65;;;12.70;;
37459;SDS011;23318;50.966;5.284;2023-04-24T02:14:38;22.65;;;13.95;;
37459;SDS011;23318;50.966;5.284;2023-04-24T02:17:04;21.05;;;13.35;;
37459;SDS011;23318;50.966;5.284;2023-04-24T02:19:30;21.98;;;13.55;;
37459;SDS011;23318;50.966;5.284;2023-04-24T02:21:56;21.15;;;13.40;;
37459;SDS011;23318;50.966;5.284;2023-04-24T02:24:21;19.52;;;11.18;;
37459;SDS011;23318;50.966;5.284;2023-04-24T02:26:47;20.42;;;10.98;;
37459;SDS011;23318;50.966;5.284;2023-04-24T02:29:13;25.67;;;13.90;;
37459;SDS011;23318;50.966;5.284;2023-04-24T02:31:38;23.42;;;13.40;;
37459;SDS011;23318;50.966;5.284;2023-04-24T02:34:04;21.33;;;13.02;;
37459;SDS011;23318;50.966;5.284;2023-04-24T02:36:30;18.77;;;10.25;;
37459;SDS011;23318;50.966;5.284;2023-04-24T02:38:56;22.23;;;11.35;;
37459;SDS011;23318;50.966;5.284;2023-04-24T02:41:22;17.35;;;11.15;;
37459;SDS011;23318;50.966;5.284;2023-04-24T02:43:47;20.33;;;10.40;;
37459;SDS011;23318;50.966;5.284;2023-04-24T02:46:13;18.02;;;11.48;;
37459;SDS011;23318;50.966;5.284;2023-04-24T02:48:39;18.02;;;11.82;;
37459;SDS011;23318;50.966;5.284;2023-04-24T02:51:05;15.50;;;11.35;;
37459;SDS011;23318;50.966;5.284;2023-04-24T02:53:31;17.77;;;10.63;;
37459;SDS011;23318;50.966;5.284;2023-04-24T02:55:57;18.85;;;12.00;;
37459;SDS011;23318;50.966;5.284;2023-04-24T02:58:23;15.07;;;10.60;;
37459;SDS011;23318;50.966;5.284;2023-04-24T03:00:49;16.35;;;9.63;;
37459;SDS011;23318;50.966;5.284;2023-04-24T03:03:18;17.75;;;11.10;;
37459;SDS011;23318;50.966;5.284;2023-04-24T03:05:44;21.67;;;11.35;;
37459;SDS011;23318;50.966;5.284;2023-04-24T03:08:10;18.33;;;12.10;;
37459;SDS011;23318;50.966;5.284;2023-04-24T03:10:36;16.48;;;11.35;;
37459;SDS011;23318;50.966;5.284;2023-04-24T03:13:02;18.85;;;10.88;;
37459;SDS011;23318;50.966;5.284;2023-04-24T03:15:27;22.70;;;12.57;;
37459;SDS011;23318;50.966;5.284;2023-04-24T03:17:53;21.88;;;13.27;;
37459;SDS011;23318;50.966;5.284;2023-04-24T03:20:19;23.75;;;13.77;;
37459;SDS011;23318;50.966;5.284;2023-04-24T03:22:44;19.17;;;12.32;;
37459;SDS011;23318;50.966;5.284;2023-04-24T03:25:10;19.55;;;12.65;;
37459;SDS011;23318;50.966;5.284;2023-04-24T03:27:36;22.65;;;12.85;;
37459;SDS011;23318;50.966;5.284;2023-04-24T03:30:02;25.08;;;15.18;;
37459;SDS011;23318;50.966;5.284;2023-04-24T03:32:28;23.90;;;15.60;;
37459;SDS011;23318;50.966;5.284;2023-04-24T03:34:54;26.13;;;16.52;;
37459;SDS011;23318;50.966;5.284;2023-04-24T03:37:20;23.92;;;14.90;;
37459;SDS011;23318;50.966;5.284;2023-04-24T03:39:46;21.58;;;13.68;;
37459;SDS011;23318;50.966;5.284;2023-04-24T03:42:11;26.45;;;16.10;;
37459;SDS011;23318;50.966;5.284;2023-04-24T03:44:37;25.00;;;15.00;;
37459;SDS011;23318;50.966;5.284;2023-04-24T03:47:02;18.33;;;13.52;;
37459;SDS011;23318;50.966;5.284;2023-04-24T03:49:28;29.42;;;17.13;;
37459;SDS011;23318;50.966;5.284;2023-04-24T03:51:54;24.40;;;15.45;;
37459;SDS011;23318;50.966;5.284;2023-04-24T03:54:19;28.23;;;16.77;;
37459;SDS011;23318;50.966;5.284;2023-04-24T03:56:45;28.85;;;14.13;;
37459;SDS011;23318;50.966;5.284;2023-04-24T03:59:11;31.02;;;16.75;;
37459;SDS011;23318;50.966;5.284;2023-04-24T04:01:37;25.92;;;15.05;;
37459;SDS011;23318;50.966;5.284;2023-04-24T04:04:04;22.50;;;13.98;;
37459;SDS011;23318;50.966;5.284;2023-04-24T04:06:30;26.75;;;16.63;;
37459;SDS011;23318;50.966;5.284;2023-04-24T04:08:56;31.98;;;17.60;;
37459;SDS011;23318;50.966;5.284;2023-04-24T04:11:22;25.20;;;16.27;;
37459;SDS011;23318;50.966;5.284;2023-04-24T04:13:48;24.88;;;16.33;;
37459;SDS011;23318;50.966;5.284;2023-04-24T04:16:15;26.98;;;13.88;;
37459;SDS011;23318;50.966;5.284;2023-04-24T04:18:43;20.05;;;13.48;;
37459;SDS011;23318;50.966;5.284;2023-04-24T04:21:10;28.08;;;18.08;;
37459;SDS011;23318;50.966;5.284;2023-04-24T04:23:36;30.63;;;19.05;;
37459;SDS011;23318;50.966;5.284;2023-04-24T04:26:02;30.38;;;16.73;;
37459;SDS011;23318;50.966;5.284;2023-04-24T04:28:28;28.50;;;15.98;;
37459;SDS011;23318;50.966;5.284;2023-04-24T04:30:56;26.80;;;15.98;;
37459;SDS011;23318;50.966;5.284;2023-04-24T04:33:23;27.70;;;16.35;;
37459;SDS011;23318;50.966;5.284;2023-04-24T04:35:49;26.33;;;16.30;;
37459;SDS011;23318;50.966;5.284;2023-04-24T04:38:17;26.60;;;14.93;;
37459;SDS011;23318;50.966;5.284;2023-04-24T04:40:43;21.70;;;15.85;;
37459;SDS011;23318;50.966;5.284;2023-04-24T04:43:10;24.38;;;16.40;;
37459;SDS011;23318;50.966;5.284;2023-04-24T04:45:36;30.98;;;17.52;;
37459;SDS011;23318;50.966;5.284;2023-04-24T04:48:04;24.55;;;15.43;;
37459;SDS011;23318;50.966;5.284;2023-04-24T04:50:32;24.45;;;16.10;;
37459;SDS011;23318;50.966;5.284;2023-04-24T04:52:58;21.70;;;13.45;;
37459;SDS011;23318;50.966;5.284;2023-04-24T04:55:24;23.85;;;14.95;;
37459;SDS011;23318;50.966;5.284;2023-04-24T04:57:50;27.20;;;16.90;;
37459;SDS011;23318;50.966;5.284;2023-04-24T05:00:16;27.77;;;16.05;;
37459;SDS011;23318;50.966;5.284;2023-04-24T05:02:41;20.67;;;12.70;;
37459;SDS011;23318;50.966;5.284;2023-04-24T05:05:07;21.98;;;14.52;;
37459;SDS011;23318;50.966;5.284;2023-04-24T05:07:34;26.05;;;14.70;;
37459;SDS011;23318;50.966;5.284;2023-04-24T05:09:59;18.33;;;13.35;;
37459;SDS011;23318;50.966;5.284;2023-04-24T05:12:25;19.30;;;12.73;;
37459;SDS011;23318;50.966;5.284;2023-04-24T05:14:51;19.27;;;12.77;;
37459;SDS011;23318;50.966;5.284;2023-04-24T05:17:17;21.73;;;12.68;;
37459;SDS011;23318;50.966;5.284;2023-04-24T05:19:43;20.50;;;11.98;;
37459;SDS011;23318;50.966;5.284;2023-04-24T05:22:09;16.95;;;11.07;;
37459;SDS011;23318;50.966;5.284;2023-04-24T05:24:36;16.98;;;9.85;;
37459;SDS011;23318;50.966;5.284;2023-04-24T05:27:03;11.90;;;9.10;;
37459;SDS011;23318;50.966;5.284;2023-04-24T05:29:29;13.00;;;8.70;;
37459;SDS011;23318;50.966;5.284;2023-04-24T05:31:57;15.10;;;9.43;;
37459;SDS011;23318;50.966;5.284;2023-04-24T05:34:23;12.77;;;9.02;;
37459;SDS011;23318;50.966;5.284;2023-04-24T05:36:49;11.65;;;8.55;;
37459;SDS011;23318;50.966;5.284;2023-04-24T05:39:15;9.65;;;6.13;;
37459;SDS011;23318;50.966;5.284;2023-04-24T05:41:41;8.18;;;6.78;;
37459;SDS011;23318;50.966;5.284;2023-04-24T05:44:07;8.80;;;6.30;;
37459;SDS011;23318;50.966;5.284;2023-04-24T05:46:33;9.45;;;5.68;;
37459;SDS011;23318;50.966;5.284;2023-04-24T05:48:58;8.65;;;5.88;;
37459;SDS011;23318;50.966;5.284;2023-04-24T05:51:24;9.48;;;6.15;;
37459;SDS011;23318;50.966;5.284;2023-04-24T05:53:50;10.25;;;7.50;;
37459;SDS011;23318;50.966;5.284;2023-04-24T05:56:16;15.93;;;9.50;;
37459;SDS011;23318;50.966;5.284;2023-04-24T05:58:42;16.60;;;10.00;;
37459;SDS011;23318;50.966;5.284;2023-04-24T06:01:08;15.55;;;10.13;;
37459;SDS011;23318;50.966;5.284;2023-04-24T06:03:34;20.42;;;11.45;;
37459;SDS011;23318;50.966;5.284;2023-04-24T06:06:00;18.38;;;9.88;;
37459;SDS011;23318;50.966;5.284;2023-04-24T06:08:26;17.45;;;10.90;;
37459;SDS011;23318;50.966;5.284;2023-04-24T06:10:51;18.42;;;11.57;;
37459;SDS011;23318;50.966;5.284;2023-04-24T06:13:17;19.98;;;11.77;;
37459;SDS011;23318;50.966;5.284;2023-04-24T06:15:43;18.75;;;12.50;;
37459;SDS011;23318;50.966;5.284;2023-04-24T06:18:09;24.02;;;12.55;;
37459;SDS011;23318;50.966;5.284;2023-04-24T06:20:38;22.33;;;12.05;;
37459;SDS011;23318;50.966;5.284;2023-04-24T06:23:04;21.85;;;13.55;;
37459;SDS011;23318;50.966;5.284;2023-04-24T06:25:30;21.75;;;12.30;;
37459;SDS011;23318;50.966;5.284;2023-04-24T06:27:55;21.60;;;13.43;;
37459;SDS011;23318;50.966;5.284;2023-04-24T06:30:22;26.05;;;13.57;;
37459;SDS011;23318;50.966;5.284;2023-04-24T06:32:47;23.42;;;12.23;;
37459;SDS011;23318;50.966;5.284;2023-04-24T06:35:13;17.58;;;10.80;;
37459;SDS011;23318;50.966;5.284;2023-04-24T06:37:39;17.60;;;11.88;;
37459;SDS011;23318;50.966;5.284;2023-04-24T06:40:06;20.95;;;12.45;;
37459;SDS011;23318;50.966;5.284;2023-04-24T06:42:32;20.38;;;11.75;;
37459;SDS011;23318;50.966;5.284;2023-04-24T06:44:59;19.05;;;12.38;;
37459;SDS011;23318;50.966;5.284;2023-04-24T06:47:25;20.02;;;11.25;;
37459;SDS011;23318;50.966;5.284;2023-04-24T06:49:51;20.67;;;11.18;;
37459;SDS011;23318;50.966;5.284;2023-04-24T06:52:17;20.90;;;10.95;;
37459;SDS011;23318;50.966;5.284;2023-04-24T06:54:43;23.98;;;11.25;;
37459;SDS011;23318;50.966;5.284;2023-04-24T06:57:09;16.85;;;11.70;;
37459;SDS011;23318;50.966;5.284;2023-04-24T06:59:35;23.80;;;12.93;;
37459;SDS011;23318;50.966;5.284;2023-04-24T07:02:01;19.48;;;12.38;;
37459;SDS011;23318;50.966;5.284;2023-04-24T07:04:27;21.38;;;13.05;;
37459;SDS011;23318;50.966;5.284;2023-04-24T07:06:54;21.65;;;13.65;;
37459;SDS011;23318;50.966;5.284;2023-04-24T07:09:23;25.17;;;14.23;;
37459;SDS011;23318;50.966;5.284;2023-04-24T07:11:50;27.83;;;14.52;;
37459;SDS011;23318;50.966;5.284;2023-04-24T07:14:16;27.08;;;14.85;;
37459;SDS011;23318;50.966;5.284;2023-04-24T07:16:42;29.60;;;16.45;;
37459;SDS011;23318;50.966;5.284;2023-04-24T07:19:09;27.30;;;17.48;;
37459;SDS011;23318;50.966;5.284;2023-04-24T07:21:34;28.67;;;15.90;;
37459;SDS011;23318;50.966;5.284;2023-04-24T07:24:00;28.50;;;18.85;;
37459;SDS011;23318;50.966;5.284;2023-04-24T07:26:28;35.28;;;18.13;;
37459;SDS011;23318;50.966;5.284;2023-04-24T07:28:55;29.85;;;17.30;;
37459;SDS011;23318;50.966;5.284;2023-04-24T07:31:21;29.50;;;17.80;;
37459;SDS011;23318;50.966;5.284;2023-04-24T07:33:46;33.55;;;17.80;;
37459;SDS011;23318;50.966;5.284;2023-04-24T07:36:12;33.38;;;17.15;;
37459;SDS011;23318;50.966;5.284;2023-04-24T07:38:42;28.85;;;16.48;;
37459;SDS011;23318;50.966;5.284;2023-04-24T07:41:08;27.85;;;15.82;;
37459;SDS011;23318;50.966;5.284;2023-04-24T07:43:33;31.23;;;18.02;;
37459;SDS011;23318;50.966;5.284;2023-04-24T07:45:59;30.60;;;16.17;;
37459;SDS011;23318;50.966;5.284;2023-04-24T07:48:25;29.70;;;16.23;;
37459;SDS011;23318;50.966;5.284;2023-04-24T07:50:51;26.13;;;15.95;;
37459;SDS011;23318;50.966;5.284;2023-04-24T07:53:17;28.90;;;16.63;;
37459;SDS011;23318;50.966;5.284;2023-04-24T07:55:43;27.25;;;16.38;;
37459;SDS011;23318;50.966;5.284;2023-04-24T07:58:09;30.42;;;15.93;;
37459;SDS011;23318;50.966;5.284;2023-04-24T08:00:35;26.70;;;16.42;;
37459;SDS011;23318;50.966;5.284;2023-04-24T08:03:00;30.27;;;16.98;;
37459;SDS011;23318;50.966;5.284;2023-04-24T08:05:26;30.60;;;17.63;;
37459;SDS011;23318;50.966;5.284;2023-04-24T08:07:53;39.03;;;18.42;;
37459;SDS011;23318;50.966;5.284;2023-04-24T08:10:20;35.45;;;18.02;;
37459;SDS011;23318;50.966;5.284;2023-04-24T08:12:46;36.55;;;19.45;;
37459;SDS011;23318;50.966;5.284;2023-04-24T08:15:12;31.55;;;18.10;;
37459;SDS011;23318;50.966;5.284;2023-04-24T08:17:38;25.27;;;16.63;;
37459;SDS011;23318;50.966;5.284;2023-04-24T08:20:04;35.67;;;17.23;;
37459;SDS011;23318;50.966;5.284;2023-04-24T08:22:30;33.38;;;15.32;;
37459;SDS011;23318;50.966;5.284;2023-04-24T08:24:57;29.70;;;15.82;;
37459;SDS011;23318;50.966;5.284;2023-04-24T08:27:25;32.33;;;14.98;;
37459;SDS011;23318;50.966;5.284;2023-04-24T08:29:52;27.75;;;14.70;;
37459;SDS011;23318;50.966;5.284;2023-04-24T08:32:19;31.80;;;16.17;;
37459;SDS011;23318;50.966;5.284;2023-04-24T08:34:44;22.63;;;13.95;;
37459;SDS011;23318;50.966;5.284;2023-04-24T08:37:10;32.33;;;14.70;;
37459;SDS011;23318;50.966;5.284;2023-04-24T08:39:36;27.60;;;14.25;;
37459;SDS011;23318;50.966;5.284;2023-04-24T08:42:02;26.83;;;13.73;;
37459;SDS011;23318;50.966;5.284;2023-04-24T08:44:32;26.60;;;12.68;;
37459;SDS011;23318;50.966;5.284;2023-04-24T08:46:58;23.17;;;13.00;;
37459;SDS011;23318;50.966;5.284;2023-04-24T08:49:25;28.27;;;12.88;;
37459;SDS011;23318;50.966;5.284;2023-04-24T08:51:53;20.63;;;11.15;;
37459;SDS011;23318;50.966;5.284;2023-04-24T08:54:18;26.70;;;10.57;;
37459;SDS011;23318;50.966;5.284;2023-04-24T08:56:45;16.27;;;7.75;;
37459;SDS011;23318;50.966;5.284;2023-04-24T08:59:13;27.45;;;9.73;;
37459;SDS011;23318;50.966;5.284;2023-04-24T09:01:40;20.45;;;8.80;;
37459;SDS011;23318;50.966;5.284;2023-04-24T09:04:06;21.77;;;8.35;;
37459;SDS011;23318;50.966;5.284;2023-04-24T09:06:37;19.02;;;7.68;;
37459;SDS011;23318;50.966;5.284;2023-04-24T09:09:04;21.00;;;8.48;;
37459;SDS011;23318;50.966;5.284;2023-04-24T09:11:30;23.13;;;7.93;;
37459;SDS011;23318;50.966;5.284;2023-04-24T09:14:00;18.33;;;7.03;;
37459;SDS011;23318;50.966;5.284;2023-04-24T09:16:26;16.75;;;6.13;;
37459;SDS011;23318;50.966;5.284;2023-04-24T09:18:52;14.10;;;4.78;;
37459;SDS011;23318;50.966;5.284;2023-04-24T09:21:20;15.00;;;5.63;;
37459;SDS011;23318;50.966;5.284;2023-04-24T09:23:46;13.68;;;5.43;;
37459;SDS011;23318;50.966;5.284;2023-04-24T09:26:24;14.85;;;6.05;;
37459;SDS011;23318;50.966;5.284;2023-04-24T09:28:50;20.38;;;6.75;;
37459;SDS011;23318;50.966;5.284;2023-04-24T09:31:18;17.40;;;6.38;;
37459;SDS011;23318;50.966;5.284;2023-04-24T09:33:56;20.23;;;7.13;;
37459;SDS011;23318;50.966;5.284;2023-04-24T09:36:32;21.30;;;7.75;;
37459;SDS011;23318;50.966;5.284;2023-04-24T09:39:03;19.80;;;7.45;;
37459;SDS011;23318;50.966;5.284;2023-04-24T09:41:31;19.77;;;8.10;;
37459;SDS011;23318;50.966;5.284;2023-04-24T09:44:10;20.38;;;7.95;;
37459;SDS011;23318;50.966;5.284;2023-04-24T09:46:38;21.02;;;7.70;;
37459;SDS011;23318;50.966;5.284;2023-04-24T09:49:07;17.80;;;7.30;;
37459;SDS011;23318;50.966;5.284;2023-04-24T09:51:35;18.60;;;6.70;;
37459;SDS011;23318;50.966;5.284;2023-04-24T09:54:02;20.63;;;7.15;;
37459;SDS011;23318;50.966;5.284;2023-04-24T09:56:33;22.92;;;6.57;;
37459;SDS011;23318;50.966;5.284;2023-04-24T09:59:08;23.45;;;7.40;;
37459;SDS011;23318;50.966;5.284;2023-04-24T10:01:34;20.58;;;7.57;;
37459;SDS011;23318;50.966;5.284;2023-04-24T10:04:00;24.55;;;8.00;;
37459;SDS011;23318;50.966;5.284;2023-04-24T10:06:35;15.48;;;7.22;;
37459;SDS011;23318;50.966;5.284;2023-04-24T10:09:01;25.10;;;8.65;;
37459;SDS011;23318;50.966;5.284;2023-04-24T10:11:28;13.32;;;7.25;;
37459;SDS011;23318;50.966;5.284;2023-04-24T10:13:55;17.27;;;6.75;;
37459;SDS011;23318;50.966;5.284;2023-04-24T10:16:22;20.20;;;6.97;;
37459;SDS011;23318;50.966;5.284;2023-04-24T10:18:51;18.55;;;5.43;;
37459;SDS011;23318;50.966;5.284;2023-04-24T10:21:17;18.23;;;6.60;;
37459;SDS011;23318;50.966;5.284;2023-04-24T10:23:43;15.82;;;6.47;;
37459;SDS011;23318;50.966;5.284;2023-04-24T10:26:14;19.30;;;7.05;;
37459;SDS011;23318;50.966;5.284;2023-04-24T10:28:45;14.00;;;5.80;;
37459;SDS011;23318;50.966;5.284;2023-04-24T10:31:12;16.55;;;5.65;;
37459;SDS011;23318;50.966;5.284;2023-04-24T10:33:39;11.85;;;5.75;;
37459;SDS011;23318;50.966;5.284;2023-04-24T10:36:07;17.80;;;7.38;;
37459;SDS011;23318;50.966;5.284;2023-04-24T10:38:34;13.98;;;7.47;;
37459;SDS011;23318;50.966;5.284;2023-04-24T10:41:11;18.25;;;7.88;;
37459;SDS011;23318;50.966;5.284;2023-04-24T10:43:44;21.67;;;8.43;;
37459;SDS011;23318;50.966;5.284;2023-04-24T10:46:10;20.80;;;8.05;;
37459;SDS011;23318;50.966;5.284;2023-04-24T10:48:44;21.15;;;7.35;;
37459;SDS011;23318;50.966;5.284;2023-04-24T10:53:46;16.00;;;6.10;;
37459;SDS011;23318;50.966;5.284;2023-04-24T10:56:15;19.08;;;6.95;;
37459;SDS011;23318;50.966;5.284;2023-04-24T10:58:45;16.05;;;6.53;;
37459;SDS011;23318;50.966;5.284;2023-04-24T11:01:28;18.65;;;6.00;;
37459;SDS011;23318;50.966;5.284;2023-04-24T11:04:04;14.88;;;5.63;;
37459;SDS011;23318;50.966;5.284;2023-04-24T11:09:01;14.15;;;6.30;;
37459;SDS011;23318;50.966;5.284;2023-04-24T11:21:42;15.15;;;6.45;;
37459;SDS011;23318;50.966;5.284;2023-04-24T11:29:46;23.08;;;6.60;;
37459;SDS011;23318;50.966;5.284;2023-04-24T11:35:02;13.77;;;5.68;;
37459;SDS011;23318;50.966;5.284;2023-04-24T11:37:41;15.23;;;5.53;;
37459;SDS011;23318;50.966;5.284;2023-04-24T11:40:09;13.13;;;4.82;;
37459;SDS011;23318;50.966;5.284;2023-04-24T11:42:37;10.63;;;3.92;;
37459;SDS011;23318;50.966;5.284;2023-04-24T11:45:08;13.82;;;4.00;;
37459;SDS011;23318;50.966;5.284;2023-04-24T11:47:35;9.65;;;4.28;;
37459;SDS011;23318;50.966;5.284;2023-04-24T11:50:01;14.25;;;4.57;;
37459;SDS011;23318;50.966;5.284;2023-04-24T11:52:28;9.68;;;4.00;;
37459;SDS011;23318;50.966;5.284;2023-04-24T11:54:55;10.60;;;4.97;;
37459;SDS011;23318;50.966;5.284;2023-04-24T11:57:21;9.52;;;3.78;;
37459;SDS011;23318;50.966;5.284;2023-04-24T11:59:49;14.13;;;5.45;;
37459;SDS011;23318;50.966;5.284;2023-04-24T12:02:21;11.50;;;5.35;;
37459;SDS011;23318;50.966;5.284;2023-04-24T12:04:47;12.35;;;4.60;;
37459;SDS011;23318;50.966;5.284;2023-04-24T12:07:13;10.77;;;4.32;;
37459;SDS011;23318;50.966;5.284;2023-04-24T12:09:42;8.32;;;3.90;;
37459;SDS011;23318;50.966;5.284;2023-04-24T12:12:12;12.77;;;4.47;;
37459;SDS011;23318;50.966;5.284;2023-04-24T12:14:48;9.05;;;3.80;;
37459;SDS011;23318;50.966;5.284;2023-04-24T12:17:17;8.68;;;3.58;;
37459;SDS011;23318;50.966;5.284;2023-04-24T12:19:48;12.27;;;4.40;;
37459;SDS011;23318;50.966;5.284;2023-04-24T12:22:15;9.55;;;4.05;;
37459;SDS011;23318;50.966;5.284;2023-04-24T12:24:58;10.82;;;4.25;;
37459;SDS011;23318;50.966;5.284;2023-04-24T12:27:26;10.57;;;4.50;;
37459;SDS011;23318;50.966;5.284;2023-04-24T12:29:58;9.48;;;3.80;;
37459;SDS011;23318;50.966;5.284;2023-04-24T12:32:25;10.77;;;4.03;;
37459;SDS011;23318;50.966;5.284;2023-04-24T12:34:52;14.40;;;5.15;;
37459;SDS011;23318;50.966;5.284;2023-04-24T12:37:19;13.93;;;4.97;;
37459;SDS011;23318;50.966;5.284;2023-04-24T12:42:30;9.18;;;4.15;;
37459;SDS011;23318;50.966;5.284;2023-04-24T12:45:00;10.57;;;4.10;;
37459;SDS011;23318;50.966;5.284;2023-04-24T12:47:31;10.10;;;4.25;;
37459;SDS011;23318;50.966;5.284;2023-04-24T12:49:57;7.40;;;3.90;;
37459;SDS011;23318;50.966;5.284;2023-04-24T12:52:23;9.32;;;3.75;;
37459;SDS011;23318;50.966;5.284;2023-04-24T12:54:52;10.38;;;3.63;;
37459;SDS011;23318;50.966;5.284;2023-04-24T12:57:19;7.28;;;3.30;;
37459;SDS011;23318;50.966;5.284;2023-04-24T12:59:45;9.00;;;3.53;;
37459;SDS011;23318;50.966;5.284;2023-04-24T13:02:11;8.07;;;3.40;;
37459;SDS011;23318;50.966;5.284;2023-04-24T13:04:37;7.72;;;3.72;;
37459;SDS011;23318;50.966;5.284;2023-04-24T13:07:02;6.60;;;3.40;;
37459;SDS011;23318;50.966;5.284;2023-04-24T13:09:28;7.38;;;3.20;;
37459;SDS011;23318;50.966;5.284;2023-04-24T13:11:54;12.80;;;3.95;;
37459;SDS011;23318;50.966;5.284;2023-04-24T13:14:21;9.63;;;3.38;;
37459;SDS011;23318;50.966;5.284;2023-04-24T13:16:47;10.75;;;3.45;;
37459;SDS011;23318;50.966;5.284;2023-04-24T13:19:13;8.13;;;3.10;;
37459;SDS011;23318;50.966;5.284;2023-04-24T13:21:39;6.20;;;3.25;;
37459;SDS011;23318;50.966;5.284;2023-04-24T13:24:04;10.50;;;3.72;;
37459;SDS011;23318;50.966;5.284;2023-04-24T13:26:32;9.52;;;3.55;;
37459;SDS011;23318;50.966;5.284;2023-04-24T13:28:58;9.73;;;3.50;;
37459;SDS011;23318;50.966;5.284;2023-04-24T13:31:24;7.30;;;3.78;;
37459;SDS011;23318;50.966;5.284;2023-04-24T13:33:49;10.05;;;3.20;;
37459;SDS011;23318;50.966;5.284;2023-04-24T13:36:15;7.20;;;3.35;;
37459;SDS011;23318;50.966;5.284;2023-04-24T13:38:42;10.38;;;3.60;;
37459;SDS011;23318;50.966;5.284;2023-04-24T13:41:09;7.20;;;3.35;;
37459;SDS011;23318;50.966;5.284;2023-04-24T13:43:35;9.02;;;3.55;;
37459;SDS011;23318;50.966;5.284;2023-04-24T13:46:01;6.97;;;3.28;;
37459;SDS011;23318;50.966;5.284;2023-04-24T13:48:28;7.45;;;3.17;;
37459;SDS011;23318;50.966;5.284;2023-04-24T13:50:54;8.93;;;3.20;;
37459;SDS011;23318;50.966;5.284;2023-04-24T13:53:20;6.20;;;2.97;;
37459;SDS011;23318;50.966;5.284;2023-04-24T13:55:46;6.68;;;2.30;;
37459;SDS011;23318;50.966;5.284;2023-04-24T13:58:12;8.73;;;2.70;;
37459;SDS011;23318;50.966;5.284;2023-04-24T14:00:38;5.38;;;2.75;;
37459;SDS011;23318;50.966;5.284;2023-04-24T14:03:04;6.97;;;2.70;;
37459;SDS011;23318;50.966;5.284;2023-04-24T14:05:30;8.68;;;2.50;;
37459;SDS011;23318;50.966;5.284;2023-04-24T14:07:55;4.25;;;2.50;;
37459;SDS011;23318;50.966;5.284;2023-04-24T14:10:21;6.95;;;2.88;;
37459;SDS011;23318;50.966;5.284;2023-04-24T14:12:47;5.60;;;2.95;;
37459;SDS011;23318;50.966;5.284;2023-04-24T14:15:13;8.88;;;2.75;;
37459;SDS011;23318;50.966;5.284;2023-04-24T14:17:39;6.97;;;2.75;;
37459;SDS011;23318;50.966;5.284;2023-04-24T14:20:05;5.38;;;2.85;;
37459;SDS011;23318;50.966;5.284;2023-04-24T14:22:32;11.00;;;2.97;;
37459;SDS011;23318;50.966;5.284;2023-04-24T14:24:57;3.70;;;2.95;;
37459;SDS011;23318;50.966;5.284;2023-04-24T14:27:24;5.70;;;2.33;;
37459;SDS011;23318;50.966;5.284;2023-04-24T14:29:50;3.03;;;2.05;;
37459;SDS011;23318;50.966;5.284;2023-04-24T14:32:15;5.50;;;2.47;;
37459;SDS011;23318;50.966;5.284;2023-04-24T14:34:41;6.03;;;2.92;;
37459;SDS011;23318;50.966;5.284;2023-04-24T14:37:07;6.10;;;2.75;;
37459;SDS011;23318;50.966;5.284;2023-04-24T14:39:33;7.10;;;2.50;;
37459;SDS011;23318;50.966;5.284;2023-04-24T14:41:58;7.55;;;2.90;;
37459;SDS011;23318;50.966;5.284;2023-04-24T14:44:25;6.28;;;2.40;;
37459;SDS011;23318;50.966;5.284;2023-04-24T14:46:51;8.57;;;2.60;;
37459;SDS011;23318;50.966;5.284;2023-04-24T14:49:17;7.97;;;2.42;;
37459;SDS011;23318;50.966;5.284;2023-04-24T14:51:42;5.97;;;1.98;;
37459;SDS011;23318;50.966;5.284;2023-04-24T14:54:08;6.20;;;2.20;;